sensor_id;sensor_type;location;lat;lon;timestamp;temperature;humidity
4183;DHT22;2105;52.300;9.182;2023-02-21T00:09:22;8.60;99.90
4183;DHT22;2105;52.300;9.182;2023-02-21T00:13:01;8.60;99.90
4183;DHT22;2105;52.300;9.182;2023-02-21T00:15:40;8.60;99.90
4183;DHT22;2105;52.300;9.182;2023-02-21T00:18:46;8.60;99.90
4183;DHT22;2105;52.300;9.182;2023-02-21T00:21:46;8.60;99.90
4183;DHT22;2105;52.300;9.182;2023-02-21T00:24:59;8.60;99.90
4183;DHT22;2105;52.300;9.182;2023-02-21T00:27:50;8.60;99.90
4183;DHT22;2105;52.300;9.182;2023-02-21T00:30:58;8.70;99.90
4183;DHT22;2105;52.300;9.182;2023-02-21T00:37:14;8.70;99.90
4183;DHT22;2105;52.300;9.182;2023-02-21T00:40:19;8.70;99.90
4183;DHT22;2105;52.300;9.182;2023-02-21T00:43:58;8.70;99.90
4183;DHT22;2105;52.300;9.182;2023-02-21T00:46:59;8.70;99.90
4183;DHT22;2105;52.300;9.182;2023-02-21T01:06:37;8.70;99.90
4183;DHT22;2105;52.300;9.182;2023-02-21T01:09:48;8.60;99.90
4183;DHT22;2105;52.300;9.182;2023-02-21T01:12:40;8.60;99.90
4183;DHT22;2105;52.300;9.182;2023-02-21T01:15:44;8.60;99.90
4183;DHT22;2105;52.300;9.182;2023-02-21T01:19:33;8.70;99.90
4183;DHT22;2105;52.300;9.182;2023-02-21T01:22:52;8.60;99.90
4183;DHT22;2105;52.300;9.182;2023-02-21T01:29:27;8.70;99.90
4183;DHT22;2105;52.300;9.182;2023-02-21T01:32:18;8.70;99.90
4183;DHT22;2105;52.300;9.182;2023-02-21T01:55:23;8.80;99.90
4183;DHT22;2105;52.300;9.182;2023-02-21T01:58:08;8.80;99.90
4183;DHT22;2105;52.300;9.182;2023-02-21T02:00:53;8.90;99.90
4183;DHT22;2105;52.300;9.182;2023-02-21T02:03:38;8.80;99.90
4183;DHT22;2105;52.300;9.182;2023-02-21T02:06:24;8.80;99.90
4183;DHT22;2105;52.300;9.182;2023-02-21T02:09:15;8.80;99.90
4183;DHT22;2105;52.300;9.182;2023-02-21T02:12:15;8.80;99.90
4183;DHT22;2105;52.300;9.182;2023-02-21T02:15:05;8.80;99.90
4183;DHT22;2105;52.300;9.182;2023-02-21T02:17:42;8.80;99.90
4183;DHT22;2105;52.300;9.182;2023-02-21T02:20:38;8.80;99.90
4183;DHT22;2105;52.300;9.182;2023-02-21T02:23:33;8.80;99.90
4183;DHT22;2105;52.300;9.182;2023-02-21T02:29:22;8.80;99.90
4183;DHT22;2105;52.300;9.182;2023-02-21T02:32:09;8.80;99.90
4183;DHT22;2105;52.300;9.182;2023-02-21T02:34:49;8.80;99.90
4183;DHT22;2105;52.300;9.182;2023-02-21T02:37:22;8.80;99.90
4183;DHT22;2105;52.300;9.182;2023-02-21T02:39:57;8.80;99.90
4183;DHT22;2105;52.300;9.182;2023-02-21T02:42:42;8.80;99.90
4183;DHT22;2105;52.300;9.182;2023-02-21T02:45:16;8.80;99.90
4183;DHT22;2105;52.300;9.182;2023-02-21T02:47:50;8.80;99.90
4183;DHT22;2105;52.300;9.182;2023-02-21T02:50:23;8.70;99.90
4183;DHT22;2105;52.300;9.182;2023-02-21T02:52:54;8.80;99.90
4183;DHT22;2105;52.300;9.182;2023-02-21T02:55:39;8.80;99.90
4183;DHT22;2105;52.300;9.182;2023-02-21T02:58:08;8.80;99.90
4183;DHT22;2105;52.300;9.182;2023-02-21T03:00:40;8.80;99.90
4183;DHT22;2105;52.300;9.182;2023-02-21T03:03:42;8.80;99.90
4183;DHT22;2105;52.300;9.182;2023-02-21T03:06:20;8.80;99.90
4183;DHT22;2105;52.300;9.182;2023-02-21T03:08:55;8.80;99.90
4183;DHT22;2105;52.300;9.182;2023-02-21T03:11:47;8.80;99.90
4183;DHT22;2105;52.300;9.182;2023-02-21T03:14:43;8.80;99.90
4183;DHT22;2105;52.300;9.182;2023-02-21T03:17:14;8.80;99.90
4183;DHT22;2105;52.300;9.182;2023-02-21T03:19:46;8.80;99.90
4183;DHT22;2105;52.300;9.182;2023-02-21T03:22:30;8.80;99.90
4183;DHT22;2105;52.300;9.182;2023-02-21T03:25:01;8.90;99.90
4183;DHT22;2105;52.300;9.182;2023-02-21T03:27:30;8.80;99.90
4183;DHT22;2105;52.300;9.182;2023-02-21T03:30:41;8.90;99.90
4183;DHT22;2105;52.300;9.182;2023-02-21T03:33:17;8.90;99.90
4183;DHT22;2105;52.300;9.182;2023-02-21T03:35:58;8.90;99.90
4183;DHT22;2105;52.300;9.182;2023-02-21T03:38:51;8.80;99.90
4183;DHT22;2105;52.300;9.182;2023-02-21T03:41:27;8.80;99.90
4183;DHT22;2105;52.300;9.182;2023-02-21T03:43:56;8.90;99.90
4183;DHT22;2105;52.300;9.182;2023-02-21T03:46:24;8.90;99.90
4183;DHT22;2105;52.300;9.182;2023-02-21T03:48:52;8.90;99.90
4183;DHT22;2105;52.300;9.182;2023-02-21T03:51:19;8.90;99.90
4183;DHT22;2105;52.300;9.182;2023-02-21T03:53:48;8.90;99.90
4183;DHT22;2105;52.300;9.182;2023-02-21T03:56:15;8.80;99.90
4183;DHT22;2105;52.300;9.182;2023-02-21T03:58:43;8.90;99.90
4183;DHT22;2105;52.300;9.182;2023-02-21T04:01:09;8.90;99.90
4183;DHT22;2105;52.300;9.182;2023-02-21T04:03:38;8.90;99.90
4183;DHT22;2105;52.300;9.182;2023-02-21T04:06:06;8.90;99.90
4183;DHT22;2105;52.300;9.182;2023-02-21T04:08:35;8.90;99.90
4183;DHT22;2105;52.300;9.182;2023-02-21T04:11:03;8.90;99.90
4183;DHT22;2105;52.300;9.182;2023-02-21T04:13:32;8.90;99.90
4183;DHT22;2105;52.300;9.182;2023-02-21T04:16:00;8.90;99.90
4183;DHT22;2105;52.300;9.182;2023-02-21T04:18:31;8.90;99.90
4183;DHT22;2105;52.300;9.182;2023-02-21T04:21:00;8.90;99.90
4183;DHT22;2105;52.300;9.182;2023-02-21T04:23:32;8.90;99.90
4183;DHT22;2105;52.300;9.182;2023-02-21T04:26:06;8.90;99.90
4183;DHT22;2105;52.300;9.182;2023-02-21T04:28:36;8.90;99.90
4183;DHT22;2105;52.300;9.182;2023-02-21T04:31:05;8.80;99.90
4183;DHT22;2105;52.300;9.182;2023-02-21T04:33:31;8.80;99.90
4183;DHT22;2105;52.300;9.182;2023-02-21T04:36:01;8.80;99.90
4183;DHT22;2105;52.300;9.182;2023-02-21T04:38:47;8.80;99.90
4183;DHT22;2105;52.300;9.182;2023-02-21T04:41:17;8.80;99.90
4183;DHT22;2105;52.300;9.182;2023-02-21T04:44:13;8.80;99.90
4183;DHT22;2105;52.300;9.182;2023-02-21T04:46:47;8.80;99.90
4183;DHT22;2105;52.300;9.182;2023-02-21T04:49:16;8.70;99.90
4183;DHT22;2105;52.300;9.182;2023-02-21T04:51:54;8.70;99.90
4183;DHT22;2105;52.300;9.182;2023-02-21T04:57:34;8.70;99.90
4183;DHT22;2105;52.300;9.182;2023-02-21T05:03:19;8.70;99.90
4183;DHT22;2105;52.300;9.182;2023-02-21T05:08:56;8.70;99.90
4183;DHT22;2105;52.300;9.182;2023-02-21T05:11:25;8.70;99.90
4183;DHT22;2105;52.300;9.182;2023-02-21T05:13:56;8.70;99.90
4183;DHT22;2105;52.300;9.182;2023-02-21T05:16:23;8.70;99.90
4183;DHT22;2105;52.300;9.182;2023-02-21T05:18:50;8.70;99.90
4183;DHT22;2105;52.300;9.182;2023-02-21T05:21:18;8.70;99.90
4183;DHT22;2105;52.300;9.182;2023-02-21T05:23:46;8.70;99.90
4183;DHT22;2105;52.300;9.182;2023-02-21T05:26:22;8.70;99.90
4183;DHT22;2105;52.300;9.182;2023-02-21T05:28:50;8.60;99.90
4183;DHT22;2105;52.300;9.182;2023-02-21T05:31:18;8.70;99.90
4183;DHT22;2105;52.300;9.182;2023-02-21T05:33:46;8.60;99.90
4183;DHT22;2105;52.300;9.182;2023-02-21T05:36:12;8.60;99.90
4183;DHT22;2105;52.300;9.182;2023-02-21T05:38:47;8.60;99.90
4183;DHT22;2105;52.300;9.182;2023-02-21T05:41:15;8.60;99.90
4183;DHT22;2105;52.300;9.182;2023-02-21T05:43:43;8.60;99.90
4183;DHT22;2105;52.300;9.182;2023-02-21T05:46:18;8.60;99.90
4183;DHT22;2105;52.300;9.182;2023-02-21T05:48:46;8.60;99.90
4183;DHT22;2105;52.300;9.182;2023-02-21T05:51:13;8.60;99.90
4183;DHT22;2105;52.300;9.182;2023-02-21T05:53:39;8.60;99.90
4183;DHT22;2105;52.300;9.182;2023-02-21T05:56:06;8.60;99.90
4183;DHT22;2105;52.300;9.182;2023-02-21T05:58:35;8.60;99.90
4183;DHT22;2105;52.300;9.182;2023-02-21T06:01:05;8.60;99.90
4183;DHT22;2105;52.300;9.182;2023-02-21T06:03:33;8.60;99.90
4183;DHT22;2105;52.300;9.182;2023-02-21T06:06:04;8.60;99.90
4183;DHT22;2105;52.300;9.182;2023-02-21T06:08:31;8.60;99.90
4183;DHT22;2105;52.300;9.182;2023-02-21T06:11:00;8.60;99.90
4183;DHT22;2105;52.300;9.182;2023-02-21T06:13:27;8.60;99.90
4183;DHT22;2105;52.300;9.182;2023-02-21T06:15:58;8.60;99.90
4183;DHT22;2105;52.300;9.182;2023-02-21T06:18:25;8.60;99.90
4183;DHT22;2105;52.300;9.182;2023-02-21T06:20:53;8.60;99.90
4183;DHT22;2105;52.300;9.182;2023-02-21T06:23:20;8.60;99.90
4183;DHT22;2105;52.300;9.182;2023-02-21T06:25:46;8.70;99.90
4183;DHT22;2105;52.300;9.182;2023-02-21T06:28:13;8.70;99.90
4183;DHT22;2105;52.300;9.182;2023-02-21T06:30:56;8.70;99.90
4183;DHT22;2105;52.300;9.182;2023-02-21T06:33:53;8.70;99.90
4183;DHT22;2105;52.300;9.182;2023-02-21T06:36:54;8.70;99.90
4183;DHT22;2105;52.300;9.182;2023-02-21T06:39:11;8.70;99.90
4183;DHT22;2105;52.300;9.182;2023-02-21T06:41:38;8.70;99.90
4183;DHT22;2105;52.300;9.182;2023-02-21T06:44:06;8.80;99.90
4183;DHT22;2105;52.300;9.182;2023-02-21T06:46:47;8.70;99.90
4183;DHT22;2105;52.300;9.182;2023-02-21T06:49:16;8.70;99.90
4183;DHT22;2105;52.300;9.182;2023-02-21T06:51:45;8.70;99.90
4183;DHT22;2105;52.300;9.182;2023-02-21T06:54:43;8.80;99.90
4183;DHT22;2105;52.300;9.182;2023-02-21T07:00:44;8.70;99.90
4183;DHT22;2105;52.300;9.182;2023-02-21T07:03:30;8.80;99.90
4183;DHT22;2105;52.300;9.182;2023-02-21T07:06:59;8.80;99.90
4183;DHT22;2105;52.300;9.182;2023-02-21T12:53:20;9.70;99.90
4183;DHT22;2105;52.300;9.182;2023-02-21T12:55:53;9.70;99.90
4183;DHT22;2105;52.300;9.182;2023-02-21T12:58:25;9.70;99.90
4183;DHT22;2105;52.300;9.182;2023-02-21T13:00:57;9.70;99.90
4183;DHT22;2105;52.300;9.182;2023-02-21T13:03:35;9.70;99.90
4183;DHT22;2105;52.300;9.182;2023-02-21T13:06:11;9.70;99.90
4183;DHT22;2105;52.300;9.182;2023-02-21T13:08:50;9.80;99.90
4183;DHT22;2105;52.300;9.182;2023-02-21T13:11:21;9.80;99.90
4183;DHT22;2105;52.300;9.182;2023-02-21T13:13:50;9.80;99.90
4183;DHT22;2105;52.300;9.182;2023-02-21T13:16:16;9.80;99.90
4183;DHT22;2105;52.300;9.182;2023-02-21T13:18:46;9.80;99.90
4183;DHT22;2105;52.300;9.182;2023-02-21T13:21:24;9.80;99.90
4183;DHT22;2105;52.300;9.182;2023-02-21T13:23:58;9.80;99.90
4183;DHT22;2105;52.300;9.182;2023-02-21T13:26:38;9.80;99.90
4183;DHT22;2105;52.300;9.182;2023-02-21T13:29:15;9.80;99.90
4183;DHT22;2105;52.300;9.182;2023-02-21T13:31:43;9.80;99.90
4183;DHT22;2105;52.300;9.182;2023-02-21T13:34:11;9.80;99.90
4183;DHT22;2105;52.300;9.182;2023-02-21T13:36:41;9.80;99.90
4183;DHT22;2105;52.300;9.182;2023-02-21T13:39:14;9.80;99.90
4183;DHT22;2105;52.300;9.182;2023-02-21T13:41:43;9.80;99.90
4183;DHT22;2105;52.300;9.182;2023-02-21T13:44:15;9.80;99.90
4183;DHT22;2105;52.300;9.182;2023-02-21T13:46:59;9.90;99.90
4183;DHT22;2105;52.300;9.182;2023-02-21T13:49:47;9.90;99.90
4183;DHT22;2105;52.300;9.182;2023-02-21T13:52:52;9.90;99.90
4183;DHT22;2105;52.300;9.182;2023-02-21T13:55:29;9.80;99.90
4183;DHT22;2105;52.300;9.182;2023-02-21T13:58:28;9.80;99.90
4183;DHT22;2105;52.300;9.182;2023-02-21T14:00:56;9.80;99.90
4183;DHT22;2105;52.300;9.182;2023-02-21T14:03:38;9.80;99.90
4183;DHT22;2105;52.300;9.182;2023-02-21T14:09:06;9.70;99.90
4183;DHT22;2105;52.300;9.182;2023-02-21T14:11:42;9.70;99.90
4183;DHT22;2105;52.300;9.182;2023-02-21T14:14:22;9.70;99.90
4183;DHT22;2105;52.300;9.182;2023-02-21T14:16:52;9.70;99.90
4183;DHT22;2105;52.300;9.182;2023-02-21T14:19:23;9.70;99.90
4183;DHT22;2105;52.300;9.182;2023-02-21T14:21:57;9.70;99.90
4183;DHT22;2105;52.300;9.182;2023-02-21T14:24:26;9.60;99.90
4183;DHT22;2105;52.300;9.182;2023-02-21T14:26:56;9.60;99.90
4183;DHT22;2105;52.300;9.182;2023-02-21T14:29:30;9.50;99.90
4183;DHT22;2105;52.300;9.182;2023-02-21T14:32:21;9.50;99.90
4183;DHT22;2105;52.300;9.182;2023-02-21T14:34:52;9.50;99.90
4183;DHT22;2105;52.300;9.182;2023-02-21T14:37:23;9.50;99.90
4183;DHT22;2105;52.300;9.182;2023-02-21T14:39:52;9.50;99.90
4183;DHT22;2105;52.300;9.182;2023-02-21T14:42:36;9.60;99.90
4183;DHT22;2105;52.300;9.182;2023-02-21T16:04:35;9.30;99.90
4183;DHT22;2105;52.300;9.182;2023-02-21T16:13:55;9.30;99.90
4183;DHT22;2105;52.300;9.182;2023-02-21T16:42:21;9.10;99.90
4183;DHT22;2105;52.300;9.182;2023-02-21T16:47:34;9.00;99.90
